createdAt,value
2023-04-09T00:00:44.989Z,22.08
2023-04-09T00:03:12.214Z,22.23
2023-04-09T00:05:40.846Z,15.80
2023-04-09T00:08:08.105Z,18.60
2023-04-09T00:10:35.425Z,18.05
2023-04-09T00:13:02.347Z,17.35
2023-04-09T00:15:31.673Z,17.00
2023-04-09T00:17:59.893Z,20.00
2023-04-09T00:20:26.932Z,20.90
2023-04-09T00:22:54.457Z,12.23
2023-04-09T00:25:21.503Z,11.50
2023-04-09T00:27:48.511Z,8.05
2023-04-09T00:30:16.062Z,11.68
2023-04-09T00:32:43.165Z,12.95
2023-04-09T00:35:10.525Z,12.48
2023-04-09T00:37:37.502Z,13.80
2023-04-09T00:40:05.372Z,14.30
2023-04-09T00:42:33.638Z,12.18
2023-04-09T00:45:01.139Z,8.45
2023-04-09T00:47:29.745Z,11.25
2023-04-09T00:49:57.424Z,6.75
2023-04-09T00:52:25.197Z,9.63
2023-04-09T00:54:52.901Z,11.75
2023-04-09T00:57:19.909Z,12.85
2023-04-09T00:59:46.958Z,15.15
2023-04-09T01:02:14.098Z,14.63
2023-04-09T01:04:42.821Z,11.60
2023-04-09T01:07:25.913Z,10.25
2023-04-09T01:10:09.652Z,10.27
2023-04-09T01:13:00.048Z,10.07
2023-04-09T01:15:31.470Z,11.20
2023-04-09T01:18:13.632Z,11.23
2023-04-09T01:20:48.586Z,10.88
2023-04-09T01:23:43.326Z,11.52
2023-04-09T01:26:34.706Z,14.95
2023-04-09T01:29:03.247Z,15.93
2023-04-09T01:31:34.655Z,14.48
2023-04-09T01:34:03.713Z,12.48
2023-04-09T01:36:32.431Z,11.73
2023-04-09T01:39:02.382Z,11.38
2023-04-09T01:41:32.656Z,15.45
2023-04-09T01:44:01.974Z,19.90
2023-04-09T01:46:30.101Z,21.83
2023-04-09T01:48:57.801Z,21.67
2023-04-09T01:51:27.454Z,17.30
2023-04-09T01:53:54.581Z,18.85
2023-04-09T01:56:21.824Z,19.50
2023-04-09T01:58:49.069Z,22.67
2023-04-09T02:01:32.232Z,18.80
2023-04-09T02:04:04.289Z,19.52
2023-04-09T02:06:47.509Z,21.30
2023-04-09T02:09:18.839Z,21.55
2023-04-09T02:11:49.049Z,16.55
2023-04-09T02:14:16.667Z,18.45
2023-04-09T02:16:43.887Z,18.55
2023-04-09T02:19:11.198Z,20.83
2023-04-09T02:21:38.275Z,22.65
2023-04-09T02:24:05.527Z,22.15
2023-04-09T02:26:32.542Z,20.17
2023-04-09T02:28:59.623Z,15.68
2023-04-09T02:31:26.624Z,12.00
2023-04-09T02:33:54.340Z,12.40
2023-04-09T02:36:21.906Z,10.02
2023-04-09T02:38:49.000Z,11.98
2023-04-09T02:41:16.224Z,11.85
2023-04-09T02:43:43.135Z,12.38
2023-04-09T02:46:10.224Z,12.38
2023-04-09T02:48:37.283Z,10.13
2023-04-09T02:51:07.274Z,13.68
2023-04-09T02:53:34.329Z,9.38
2023-04-09T02:56:01.384Z,11.20
2023-04-09T02:58:28.408Z,15.70
2023-04-09T03:00:55.450Z,13.40
2023-04-09T03:03:22.655Z,13.23
2023-04-09T03:05:49.763Z,16.23
2023-04-09T03:08:16.893Z,15.57
2023-04-09T03:10:43.885Z,13.77
2023-04-09T03:13:10.996Z,13.30
2023-04-09T03:15:38.072Z,16.17
2023-04-09T03:18:05.308Z,11.27
2023-04-09T03:20:32.482Z,13.45
2023-04-09T03:22:59.410Z,11.70
2023-04-09T03:25:34.707Z,13.13
2023-04-09T03:28:10.535Z,13.65
2023-04-09T03:30:47.225Z,13.10
2023-04-09T03:33:15.172Z,12.77
2023-04-09T03:35:56.884Z,13.93
2023-04-09T03:38:50.384Z,17.80
2023-04-09T03:41:27.600Z,14.88
2023-04-09T03:43:56.937Z,14.82
2023-04-09T03:46:28.352Z,15.07
2023-04-09T03:48:57.738Z,16.05
2023-04-09T03:51:33.219Z,16.67
2023-04-09T03:54:08.411Z,15.95
2023-04-09T03:56:36.745Z,15.60
2023-04-09T03:59:09.074Z,15.25
2023-04-09T04:01:41.967Z,11.75
2023-04-09T04:04:09.926Z,13.55
2023-04-09T04:06:51.568Z,8.45
2023-04-09T04:09:26.580Z,11.55
2023-04-09T04:12:02.435Z,13.18
2023-04-09T04:14:49.853Z,9.57
2023-04-09T04:17:30.601Z,7.22
2023-04-09T04:19:58.599Z,8.60
2023-04-09T04:22:26.363Z,8.07
2023-04-09T04:24:56.345Z,8.55
2023-04-09T04:27:24.667Z,8.95
2023-04-09T04:29:51.533Z,8.43
2023-04-09T04:32:33.945Z,7.43
2023-04-09T04:35:05.104Z,7.32
2023-04-09T04:37:32.525Z,7.35
2023-04-09T04:40:07.110Z,6.15
2023-04-09T04:42:37.826Z,5.38
2023-04-09T04:45:10.921Z,6.85
2023-04-09T04:47:43.815Z,8.70
2023-04-09T04:50:10.977Z,6.95
2023-04-09T04:52:58.190Z,7.30
2023-04-09T04:55:28.954Z,6.93
2023-04-09T04:57:56.381Z,9.30
2023-04-09T05:00:27.443Z,7.43
2023-04-09T05:02:56.350Z,7.25
2023-04-09T05:05:46.493Z,6.28
2023-04-09T05:08:13.656Z,10.35
2023-04-09T05:10:43.112Z,11.00
2023-04-09T05:13:11.311Z,9.65
2023-04-09T05:15:39.788Z,11.13
2023-04-09T05:18:08.219Z,11.18
2023-04-09T05:20:36.682Z,12.57
2023-04-09T05:23:10.426Z,12.20
2023-04-09T05:28:17.051Z,13.20
2023-04-09T05:30:48.426Z,12.82
2023-04-09T05:33:17.604Z,13.27
2023-04-09T05:35:45.593Z,14.90
2023-04-09T05:38:13.878Z,14.48
2023-04-09T05:40:44.490Z,14.60
2023-04-09T05:43:15.699Z,15.73
2023-04-09T05:45:45.321Z,15.10
2023-04-09T05:48:12.951Z,16.25
2023-04-09T05:50:53.320Z,15.35
2023-04-09T05:53:21.830Z,15.05
2023-04-09T05:55:52.145Z,15.75
2023-04-09T05:58:23.556Z,16.27
2023-04-09T06:00:52.600Z,16.10
2023-04-09T06:03:19.938Z,14.93
2023-04-09T06:05:47.114Z,16.02
2023-04-09T06:08:14.319Z,17.02
2023-04-09T06:10:41.563Z,15.05
2023-04-09T06:13:09.956Z,15.50
2023-04-09T06:15:38.842Z,15.18
2023-04-09T06:18:05.836Z,16.52
2023-04-09T06:20:32.786Z,16.15
2023-04-09T06:22:59.782Z,17.48
2023-04-09T06:25:26.707Z,16.58
2023-04-09T06:27:53.661Z,17.15
2023-04-09T06:30:20.861Z,15.82
2023-04-09T06:32:54.247Z,27.25
2023-04-09T06:35:22.280Z,15.93
2023-04-09T06:37:49.491Z,17.67
2023-04-09T06:40:16.678Z,17.27
2023-04-09T06:42:43.872Z,17.40
2023-04-09T06:45:22.513Z,16.77
2023-04-09T06:47:50.068Z,16.77
2023-04-09T06:50:17.348Z,14.93
2023-04-09T06:52:44.370Z,16.00
2023-04-09T06:55:11.676Z,15.02
2023-04-09T06:57:39.441Z,14.57
2023-04-09T07:00:07.348Z,14.68
2023-04-09T07:02:34.814Z,14.52
2023-04-09T07:05:02.226Z,15.15
2023-04-09T07:07:29.181Z,15.77
2023-04-09T07:09:56.373Z,15.55
2023-04-09T07:12:30.504Z,15.75
2023-04-09T07:17:35.478Z,17.65
2023-04-09T07:20:02.576Z,16.40
2023-04-09T07:22:30.432Z,18.75
2023-04-09T07:24:57.637Z,17.27
2023-04-09T07:40:18.076Z,18.45
2023-04-09T07:42:45.258Z,16.20
2023-04-09T07:45:12.377Z,16.10
2023-04-09T07:47:40.959Z,18.10
2023-04-09T07:50:08.832Z,18.08
2023-04-09T07:52:35.794Z,20.02
2023-04-09T07:55:02.821Z,18.58
2023-04-09T07:57:32.481Z,17.35
2023-04-09T07:59:59.574Z,17.63
2023-04-09T08:02:27.293Z,15.82
2023-04-09T08:04:54.674Z,17.90
2023-04-09T08:07:22.055Z,16.90
2023-04-09T08:09:48.999Z,15.07
2023-04-09T08:12:16.116Z,17.20
2023-04-09T08:14:44.166Z,19.67
2023-04-09T08:17:11.257Z,15.30
2023-04-09T08:19:40.464Z,15.00
2023-04-09T08:22:08.610Z,15.40
2023-04-09T08:24:35.789Z,14.88
2023-04-09T08:27:02.743Z,15.35
2023-04-09T08:29:29.858Z,15.82
2023-04-09T08:31:57.381Z,15.70
2023-04-09T08:34:24.422Z,17.02
2023-04-09T08:36:51.754Z,15.68
2023-04-09T08:39:20.834Z,15.65
2023-04-09T08:41:48.537Z,17.13
2023-04-09T08:44:15.616Z,16.17
2023-04-09T08:46:43.008Z,16.95
2023-04-09T08:49:10.994Z,17.40
2023-04-09T08:51:38.029Z,16.70
2023-04-09T08:54:05.334Z,16.23
2023-04-09T08:56:32.601Z,17.88
2023-04-09T08:58:59.506Z,16.95
2023-04-09T09:01:30.966Z,16.83
2023-04-09T09:04:06.761Z,16.65
2023-04-09T09:06:38.963Z,16.70
2023-04-09T09:09:16.540Z,17.88
2023-04-09T09:11:48.714Z,17.27
2023-04-09T09:14:17.468Z,16.55
2023-04-09T09:17:04.563Z,16.90
2023-04-09T09:19:36.548Z,15.98
2023-04-09T09:22:06.675Z,16.13
2023-04-09T09:24:34.671Z,17.13
2023-04-09T09:27:05.396Z,16.70
2023-04-09T09:29:33.276Z,17.02
2023-04-09T09:32:00.832Z,17.42
2023-04-09T09:34:27.797Z,18.40
2023-04-09T09:36:54.965Z,19.77
2023-04-09T09:39:22.394Z,20.05
2023-04-09T09:42:07.476Z,18.95
2023-04-09T09:44:34.420Z,20.98
2023-04-09T09:47:04.223Z,19.15
2023-04-09T09:49:31.528Z,19.00
2023-04-09T09:52:01.571Z,17.67
2023-04-09T09:54:33.345Z,18.48
2023-04-09T09:57:04.870Z,20.05
2023-04-09T09:59:37.688Z,18.55
2023-04-09T10:02:07.824Z,19.35
2023-04-09T10:04:36.183Z,20.55
2023-04-09T10:07:05.960Z,19.15
2023-04-09T10:09:38.332Z,18.30
2023-04-09T10:12:07.687Z,19.20
2023-04-09T10:14:36.226Z,18.65
2023-04-09T10:17:04.192Z,19.48
2023-04-09T10:19:39.968Z,19.52
2023-04-09T10:22:16.757Z,20.30
2023-04-09T10:24:44.239Z,19.00
2023-04-09T10:27:15.742Z,18.90
2023-04-09T10:29:45.612Z,18.88
2023-04-09T10:32:13.808Z,20.25
2023-04-09T10:34:44.018Z,20.23
2023-04-09T10:37:25.381Z,20.27
2023-04-09T10:39:53.215Z,19.55
2023-04-09T10:42:27.526Z,19.33
2023-04-09T10:45:11.731Z,19.15
2023-04-09T10:47:40.483Z,19.38
2023-04-09T10:50:26.194Z,20.98
2023-04-09T10:53:00.912Z,18.90
2023-04-09T10:55:38.304Z,19.45
2023-04-09T10:58:08.513Z,18.95
2023-04-09T11:00:40.638Z,18.83
2023-04-09T11:03:24.465Z,18.67
2023-04-09T11:05:56.788Z,19.02
2023-04-09T11:08:23.989Z,19.10
2023-04-09T11:10:52.392Z,19.38
2023-04-09T11:13:21.049Z,19.15
2023-04-09T11:15:48.427Z,18.92
2023-04-09T11:18:20.309Z,18.90
2023-04-09T11:20:47.804Z,19.00
2023-04-09T11:23:16.383Z,18.55
2023-04-09T11:25:48.328Z,19.05
2023-04-09T11:28:15.364Z,17.92
2023-04-09T11:30:43.894Z,17.70
2023-04-09T11:33:10.948Z,16.15
2023-04-09T11:35:38.318Z,17.40
2023-04-09T11:38:10.038Z,17.10
2023-04-09T11:40:43.653Z,16.92
2023-04-09T11:43:11.082Z,17.30
2023-04-09T11:45:39.354Z,16.60
2023-04-09T11:48:06.965Z,16.52
2023-04-09T11:50:34.578Z,15.98
2023-04-09T11:53:01.513Z,15.05
2023-04-09T11:55:29.693Z,16.00
2023-04-09T11:58:01.412Z,16.63
2023-04-09T12:00:29.250Z,16.50
2023-04-09T12:03:03.125Z,13.27
2023-04-09T12:05:35.145Z,14.60
2023-04-09T12:08:05.217Z,14.60
2023-04-09T12:10:34.558Z,14.70
2023-04-09T12:13:03.880Z,13.73
2023-04-09T12:15:36.094Z,12.40
2023-04-09T12:18:03.898Z,12.50
2023-04-09T12:20:35.138Z,13.35
2023-04-09T12:23:04.274Z,12.57
2023-04-09T12:25:36.968Z,12.35
2023-04-09T12:28:06.256Z,13.07
2023-04-09T12:30:34.352Z,12.25
2023-04-09T12:33:03.530Z,12.30
2023-04-09T12:35:30.698Z,12.75
2023-04-09T12:37:59.441Z,13.77
2023-04-09T12:40:27.026Z,12.63
2023-04-09T12:42:54.277Z,12.05
2023-04-09T12:45:21.549Z,13.10
2023-04-09T12:47:49.075Z,12.95
2023-04-09T12:50:16.470Z,12.52
2023-04-09T12:52:44.419Z,12.95
2023-04-09T12:55:12.487Z,12.25
2023-04-09T12:57:42.002Z,12.77
2023-04-09T13:00:11.958Z,12.68
2023-04-09T13:02:39.455Z,13.85
2023-04-09T13:05:06.746Z,13.63
2023-04-09T13:07:33.757Z,13.77
2023-04-09T13:10:00.584Z,13.40
2023-04-09T13:12:27.545Z,14.07
2023-04-09T13:14:55.205Z,13.98
2023-04-09T13:17:23.070Z,14.35
2023-04-09T13:19:51.887Z,14.35
2023-04-09T13:22:19.404Z,13.38
2023-04-09T13:24:46.328Z,14.05
2023-04-09T13:27:13.247Z,13.38
2023-04-09T13:29:40.697Z,14.38
2023-04-09T13:32:07.848Z,13.23
2023-04-09T13:34:35.695Z,13.73
2023-04-09T13:37:03.641Z,13.95
2023-04-09T13:39:31.052Z,14.68
2023-04-09T13:41:58.042Z,14.15
2023-04-09T13:44:25.560Z,14.63
2023-04-09T13:46:52.782Z,15.20
2023-04-09T13:49:19.779Z,16.15
2023-04-09T13:51:47.175Z,14.10
2023-04-09T13:54:14.181Z,14.60
2023-04-09T13:56:41.553Z,14.30
2023-04-09T13:59:08.525Z,14.77
2023-04-09T14:01:35.958Z,13.93
2023-04-09T14:04:03.012Z,14.00
2023-04-09T14:06:30.035Z,15.07
2023-04-09T14:08:57.130Z,13.38
2023-04-09T14:11:24.005Z,13.18
2023-04-09T14:13:51.292Z,14.52
2023-04-09T14:16:19.707Z,15.25
2023-04-09T14:18:46.628Z,15.82
2023-04-09T14:21:13.665Z,14.02
2023-04-09T14:23:41.100Z,14.90
2023-04-09T14:26:07.980Z,15.35
2023-04-09T14:28:34.795Z,17.02
2023-04-09T14:31:01.774Z,15.55
2023-04-09T14:33:28.747Z,16.00
2023-04-09T14:35:55.688Z,15.27
2023-04-09T14:38:24.231Z,15.68
2023-04-09T14:40:51.761Z,15.07
2023-04-09T14:43:18.704Z,16.25
2023-04-09T14:45:45.601Z,16.90
2023-04-09T14:48:12.533Z,16.38
2023-04-09T14:50:39.349Z,14.93
2023-04-09T14:53:06.166Z,14.50
2023-04-09T14:55:32.970Z,16.55
2023-04-09T14:58:01.708Z,16.20
2023-04-09T15:00:28.631Z,16.33
2023-04-09T15:02:56.465Z,17.67
2023-04-09T15:05:23.735Z,15.55
2023-04-09T15:07:50.588Z,17.65
2023-04-09T15:10:17.653Z,16.02
2023-04-09T15:12:44.521Z,16.48
2023-04-09T15:15:13.709Z,15.70
2023-04-09T15:17:41.276Z,16.40
2023-04-09T15:20:08.516Z,15.73
2023-04-09T15:22:35.552Z,20.25
2023-04-09T15:25:02.506Z,14.90
2023-04-09T15:27:29.376Z,16.30
2023-04-09T15:29:56.270Z,17.42
2023-04-09T15:32:23.159Z,15.90
2023-04-09T15:34:50.440Z,16.75
2023-04-09T15:37:17.351Z,16.13
2023-04-09T15:39:44.286Z,15.25
2023-04-09T15:42:12.750Z,14.45
2023-04-09T15:44:41.502Z,16.15
2023-04-09T15:47:08.383Z,15.68
2023-04-09T15:49:36.987Z,14.90
2023-04-09T15:52:04.167Z,14.07
2023-04-09T15:54:31.249Z,14.57
2023-04-09T15:56:58.169Z,14.48
2023-04-09T15:59:25.218Z,17.85
2023-04-09T16:01:52.788Z,15.15
2023-04-09T16:04:19.709Z,14.18
2023-04-09T16:06:46.724Z,14.88
2023-04-09T16:09:13.560Z,13.40
2023-04-09T16:11:40.729Z,14.48
2023-04-09T16:14:09.299Z,17.55
2023-04-09T16:16:37.102Z,13.38
2023-04-09T16:19:04.032Z,16.65
2023-04-09T16:21:31.224Z,15.90
2023-04-09T16:24:00.928Z,15.38
2023-04-09T16:26:27.731Z,16.08
2023-04-09T16:28:55.013Z,13.98
2023-04-09T16:31:22.192Z,16.75
2023-04-09T16:33:49.051Z,15.02
2023-04-09T16:36:16.257Z,15.18
2023-04-09T16:38:43.143Z,16.17
2023-04-09T16:41:10.019Z,17.27
2023-04-09T16:43:36.944Z,15.70
2023-04-09T16:46:06.629Z,18.50
2023-04-09T16:48:34.227Z,15.25
2023-04-09T16:51:01.080Z,19.77
2023-04-09T16:53:28.013Z,18.20
2023-04-09T16:55:55.077Z,19.45
2023-04-09T16:58:22.004Z,20.42
2023-04-09T17:00:50.577Z,20.13
2023-04-09T17:03:19.139Z,18.70
2023-04-09T17:05:49.613Z,17.85
2023-04-09T17:08:17.501Z,21.55
2023-04-09T17:10:44.865Z,24.95
2023-04-09T17:13:12.249Z,22.02
2023-04-09T17:15:39.167Z,21.90
2023-04-09T17:18:06.133Z,15.98
2023-04-09T17:20:32.995Z,20.55
2023-04-09T17:22:59.956Z,19.08
2023-04-09T17:25:27.159Z,23.98
2023-04-09T17:27:54.640Z,18.40
2023-04-09T17:30:21.484Z,21.48
2023-04-09T17:32:51.202Z,19.05
2023-04-09T17:35:18.262Z,18.27
2023-04-09T17:37:45.196Z,18.42
2023-04-09T17:40:14.458Z,15.20
2023-04-09T17:42:41.732Z,18.83
2023-04-09T17:45:09.151Z,19.85
2023-04-09T17:47:36.077Z,18.27
2023-04-09T17:50:03.140Z,20.95
2023-04-09T17:52:36.723Z,23.80
2023-04-09T17:55:07.922Z,18.20
2023-04-09T17:57:35.925Z,18.00
2023-04-09T18:00:04.477Z,18.83
2023-04-09T18:02:32.773Z,20.98
2023-04-09T18:05:04.531Z,20.13
2023-04-09T18:07:35.628Z,20.50
2023-04-09T18:10:03.551Z,22.00
2023-04-09T18:12:30.850Z,20.52
2023-04-09T18:14:57.715Z,21.08
2023-04-09T18:17:26.449Z,20.73
2023-04-09T18:19:54.810Z,20.95
2023-04-09T18:22:21.913Z,21.65
2023-04-09T18:24:49.884Z,20.45
2023-04-09T18:27:17.803Z,23.42
2023-04-09T18:29:44.825Z,22.58
2023-04-09T18:32:12.568Z,22.55
2023-04-09T18:34:39.489Z,20.40
2023-04-09T18:37:06.506Z,19.98
2023-04-09T18:39:34.884Z,20.60
2023-04-09T18:42:02.608Z,19.98
2023-04-09T18:44:29.503Z,25.15
2023-04-09T18:46:56.629Z,19.65
2023-04-09T18:49:23.715Z,21.90
2023-04-09T18:51:50.584Z,23.45
2023-04-09T18:54:19.835Z,23.17
2023-04-09T18:56:46.731Z,21.55
2023-04-09T18:59:13.644Z,21.02
2023-04-09T19:01:40.580Z,20.58
2023-04-09T19:04:07.892Z,22.73
2023-04-09T19:06:36.235Z,24.67
2023-04-09T19:09:05.655Z,17.98
2023-04-09T19:11:32.461Z,20.15
2023-04-09T19:13:59.380Z,19.13
2023-04-09T19:16:26.309Z,19.75
2023-04-09T19:18:53.526Z,22.10
2023-04-09T19:21:20.617Z,19.52
2023-04-09T19:23:47.714Z,21.45
2023-04-09T19:26:14.898Z,18.65
2023-04-09T19:41:36.923Z,21.65
2023-04-09T19:44:05.326Z,24.58
2023-04-09T19:46:33.544Z,23.58
2023-04-09T19:49:00.752Z,24.42
2023-04-09T19:51:27.600Z,24.77
2023-04-09T19:53:54.817Z,26.75
2023-04-09T19:56:21.733Z,25.10
2023-04-09T19:58:48.632Z,25.88
2023-04-09T20:01:17.084Z,21.65
2023-04-09T20:03:44.298Z,21.13
2023-04-09T20:06:11.321Z,20.30
2023-04-09T20:08:38.454Z,18.60
2023-04-09T20:11:08.120Z,16.02
2023-04-09T20:13:35.052Z,16.42
2023-04-09T20:16:02.237Z,17.83
2023-04-09T20:18:29.205Z,17.77
2023-04-09T20:20:56.116Z,17.52
2023-04-09T20:23:23.583Z,20.33
2023-04-09T20:25:56.844Z,21.08
2023-04-09T20:28:23.737Z,15.80
2023-04-09T20:30:52.065Z,18.33
2023-04-09T20:33:18.998Z,17.23
2023-04-09T20:35:46.112Z,18.27
2023-04-09T20:38:13.124Z,18.55
2023-04-09T20:40:40.808Z,19.05
2023-04-09T20:43:07.748Z,18.58
2023-04-09T20:45:34.722Z,20.35
2023-04-09T20:48:02.401Z,20.02
2023-04-09T20:50:31.057Z,21.20
2023-04-09T20:52:58.877Z,21.85
2023-04-09T20:55:26.001Z,20.55
2023-04-09T20:57:57.119Z,19.48
2023-04-09T21:00:24.501Z,19.55
2023-04-09T21:02:51.701Z,20.63
2023-04-09T21:05:23.497Z,20.10
2023-04-09T21:07:51.545Z,25.17
2023-04-09T21:10:18.727Z,23.55
2023-04-09T21:12:45.710Z,20.92
2023-04-09T21:15:12.611Z,19.70
2023-04-09T21:17:39.640Z,20.05
2023-04-09T21:20:06.921Z,20.80
2023-04-09T21:22:34.969Z,19.83
2023-04-09T21:25:03.299Z,19.60
2023-04-09T21:27:31.141Z,19.25
2023-04-09T21:29:58.166Z,20.30
2023-04-09T21:32:25.370Z,19.95
2023-04-09T21:34:53.579Z,19.50
2023-04-09T21:37:20.496Z,19.85
2023-04-09T21:39:48.925Z,19.55
2023-04-09T21:42:15.950Z,21.00
2023-04-09T21:44:43.019Z,18.60
2023-04-09T21:47:09.923Z,18.98
2023-04-09T21:49:40.295Z,20.00
2023-04-09T21:52:16.115Z,23.60
2023-04-09T21:54:46.736Z,20.95
2023-04-09T21:57:13.601Z,19.80
2023-04-09T21:59:41.551Z,18.35
2023-04-09T22:02:09.077Z,18.08
2023-04-09T22:04:36.833Z,17.10
2023-04-09T22:07:03.947Z,17.92
2023-04-09T22:09:31.646Z,17.48
2023-04-09T22:11:59.646Z,16.60
2023-04-09T22:14:29.624Z,15.65
2023-04-09T22:16:58.265Z,15.38
2023-04-09T22:19:26.334Z,15.02
2023-04-09T22:21:54.188Z,15.68
2023-04-09T22:24:30.431Z,15.52
2023-04-09T22:27:01.905Z,14.10
2023-04-09T22:29:29.489Z,13.82
2023-04-09T22:31:59.176Z,13.98
2023-04-09T22:34:26.481Z,14.18
2023-04-09T22:36:53.379Z,13.95
2023-04-09T22:39:21.616Z,14.07
2023-04-09T22:41:48.486Z,13.23
2023-04-09T22:44:15.358Z,13.40
2023-04-09T22:46:42.380Z,12.88
2023-04-09T22:49:09.496Z,13.23
2023-04-09T22:51:36.575Z,13.68
2023-04-09T22:54:03.721Z,13.13
2023-04-09T22:56:32.045Z,13.43
2023-04-09T22:58:59.561Z,12.82
2023-04-09T23:01:27.583Z,12.35
2023-04-09T23:03:54.644Z,12.77
2023-04-09T23:06:22.716Z,12.50
2023-04-09T23:08:49.923Z,12.65
2023-04-09T23:11:16.856Z,11.80
2023-04-09T23:13:43.794Z,11.75
2023-04-09T23:16:11.164Z,11.65
2023-04-09T23:18:38.156Z,12.00
2023-04-09T23:21:09.419Z,11.57
2023-04-09T23:23:37.172Z,11.77
2023-04-09T23:26:04.874Z,12.70
2023-04-09T23:28:32.402Z,11.90
2023-04-09T23:30:59.428Z,11.77
2023-04-09T23:33:26.749Z,12.48
2023-04-09T23:35:53.845Z,12.88
2023-04-09T23:38:20.932Z,12.85
2023-04-09T23:40:49.050Z,12.77
2023-04-09T23:43:16.142Z,12.48
2023-04-09T23:45:43.908Z,12.80
2023-04-09T23:48:12.202Z,12.70
2023-04-09T23:50:40.601Z,12.32
2023-04-09T23:53:07.752Z,12.90
2023-04-09T23:55:38.214Z,12.55
2023-04-09T23:58:05.578Z,13.40
